createdAt,value
2023-03-12T00:02:22.167Z,97660.17
2023-03-12T00:04:51.947Z,97664.36
2023-03-12T00:07:21.452Z,97662.18
2023-03-12T00:09:51.040Z,97662.65
2023-03-12T00:12:20.324Z,97664.83
2023-03-12T00:14:49.485Z,97674.06
2023-03-12T00:17:18.770Z,97675.57
2023-03-12T00:19:53.316Z,97677.87
2023-03-12T00:22:23.736Z,97674.20
2023-03-12T00:24:54.485Z,97680.40
2023-03-12T00:27:24.724Z,97680.20
2023-03-12T00:29:54.454Z,97686.77
2023-03-12T00:32:24.652Z,97688.08
2023-03-12T00:34:56.854Z,97689.79
2023-03-12T00:37:26.403Z,97693.36
2023-03-12T00:39:55.947Z,97689.33
2023-03-12T00:42:25.005Z,97692.43
2023-03-12T00:44:54.375Z,97691.64
2023-03-12T00:47:23.702Z,97698.30
2023-03-12T00:49:52.913Z,97698.61
2023-03-12T00:52:22.278Z,97703.07
2023-03-12T00:54:51.521Z,97702.30
2023-03-12T00:57:20.594Z,97705.34
2023-03-12T00:59:50.086Z,97712.02
2023-03-12T01:02:20.024Z,97718.39
2023-03-12T01:04:49.372Z,97721.65
2023-03-12T01:07:18.984Z,97719.23
2023-03-12T01:09:48.193Z,97715.40
2023-03-12T01:12:17.666Z,97715.65
2023-03-12T01:14:46.863Z,97714.32
2023-03-12T01:17:16.268Z,97709.27
2023-03-12T01:19:45.724Z,97707.13
2023-03-12T01:22:15.389Z,97708.33
2023-03-12T01:24:44.704Z,97713.48
2023-03-12T01:27:14.156Z,97708.97
2023-03-12T01:29:43.354Z,97711.11
2023-03-12T01:32:12.993Z,97709.95
2023-03-12T01:34:42.058Z,97704.45
2023-03-12T01:37:11.568Z,97703.99
2023-03-12T01:39:40.955Z,97700.38
2023-03-12T01:42:10.516Z,97703.23
2023-03-12T01:44:53.096Z,97704.66
2023-03-12T01:47:22.723Z,97705.10
2023-03-12T01:49:54.237Z,97698.62
2023-03-12T01:52:36.990Z,97701.26
2023-03-12T01:55:15.809Z,97702.62
2023-03-12T01:57:55.707Z,97709.43
2023-03-12T02:00:28.122Z,97714.87
2023-03-12T02:03:03.398Z,97718.17
2023-03-12T02:05:44.325Z,97713.44
2023-03-12T02:08:15.463Z,97716.06
2023-03-12T02:10:45.782Z,97714.94
2023-03-12T02:13:15.140Z,97720.99
2023-03-12T02:15:44.223Z,97722.41
2023-03-12T02:18:18.035Z,97724.47
2023-03-12T02:21:06.051Z,97725.48
2023-03-12T02:24:02.050Z,97727.16
2023-03-12T02:26:31.800Z,97726.44
2023-03-12T02:29:01.723Z,97728.04
2023-03-12T02:31:37.900Z,97727.81
2023-03-12T02:34:07.172Z,97725.62
2023-03-12T02:36:37.506Z,97728.17
2023-03-12T02:39:07.065Z,97729.70
2023-03-12T02:41:58.277Z,97739.92
2023-03-12T02:44:33.868Z,97743.49
2023-03-12T02:47:03.619Z,97742.23
2023-03-12T02:49:34.490Z,97744.27
2023-03-12T02:52:04.968Z,97748.29
2023-03-12T02:54:34.439Z,97749.93
2023-03-12T02:57:03.483Z,97751.02
2023-03-12T02:59:32.398Z,97749.81
2023-03-12T03:02:02.570Z,97752.20
2023-03-12T03:04:32.661Z,97757.73
2023-03-12T03:07:02.379Z,97759.27
2023-03-12T03:09:31.537Z,97757.86
2023-03-12T03:12:01.427Z,97755.99
2023-03-12T03:14:30.451Z,97756.78
2023-03-12T03:16:59.969Z,97764.45
2023-03-12T03:19:29.056Z,97770.84
2023-03-12T03:21:59.149Z,97780.92
2023-03-12T03:24:28.515Z,97778.08
2023-03-12T03:26:58.125Z,97776.19
2023-03-12T03:29:27.291Z,97785.55
2023-03-12T03:31:56.625Z,97788.39
2023-03-12T03:34:25.891Z,97782.36
2023-03-12T03:36:55.010Z,97780.81
2023-03-12T03:39:25.821Z,97789.44
2023-03-12T03:41:54.995Z,97791.09
2023-03-12T03:44:24.526Z,97794.67
2023-03-12T03:46:55.838Z,97796.49
2023-03-12T03:49:25.375Z,97802.17
2023-03-12T03:51:54.563Z,97798.04
2023-03-12T03:54:23.952Z,97805.77
2023-03-12T03:56:53.251Z,97814.32
2023-03-12T03:59:22.663Z,97818.66
2023-03-12T04:01:51.845Z,97836.77
2023-03-12T04:04:21.597Z,97838.95
2023-03-12T04:06:50.758Z,97838.67
2023-03-12T04:09:20.091Z,97838.15
2023-03-12T04:11:49.485Z,97831.71
2023-03-12T04:14:18.962Z,97834.14
2023-03-12T04:16:48.377Z,97839.79
2023-03-12T04:19:18.415Z,97843.95
2023-03-12T04:21:48.245Z,97851.48
2023-03-12T04:24:18.231Z,97857.05
2023-03-12T04:26:47.796Z,97859.39
2023-03-12T04:29:17.155Z,97860.92
2023-03-12T04:31:47.014Z,97870.16
2023-03-12T04:34:16.296Z,97875.27
2023-03-12T04:36:47.204Z,97876.82
2023-03-12T04:39:20.742Z,97872.71
2023-03-12T04:41:50.054Z,97878.67
2023-03-12T04:44:18.921Z,97883.76
2023-03-12T04:46:48.151Z,97882.94
2023-03-12T04:49:17.496Z,97881.93
2023-03-12T04:51:46.689Z,97893.05
2023-03-12T04:54:15.774Z,97901.02
2023-03-12T04:56:44.756Z,97912.58
2023-03-12T04:59:14.855Z,97920.21
2023-03-12T05:01:44.233Z,97924.20
2023-03-12T05:04:13.488Z,97928.16
2023-03-12T05:06:43.100Z,97934.23
2023-03-12T05:09:12.299Z,97937.93
2023-03-12T05:11:41.330Z,97941.95
2023-03-12T05:14:12.464Z,97944.08
2023-03-12T05:16:42.004Z,97939.67
2023-03-12T05:19:11.720Z,97941.11
2023-03-12T05:21:44.902Z,97949.01
2023-03-12T05:24:14.047Z,97957.85
2023-03-12T05:26:44.115Z,97960.09
2023-03-12T05:29:13.562Z,97962.29
2023-03-12T05:31:42.981Z,97966.44
2023-03-12T05:34:13.945Z,97964.29
2023-03-12T05:36:43.951Z,97971.54
2023-03-12T05:39:12.988Z,97972.25
2023-03-12T05:41:42.216Z,97980.81
2023-03-12T05:44:14.234Z,97987.42
2023-03-12T05:46:44.580Z,97994.85
2023-03-12T05:49:13.637Z,97994.98
2023-03-12T05:51:44.111Z,97997.59
2023-03-12T05:54:13.723Z,98004.83
2023-03-12T05:56:43.012Z,98009.30
2023-03-12T05:59:12.498Z,98013.49
2023-03-12T06:01:43.076Z,98017.09
2023-03-12T06:04:12.519Z,98017.38
2023-03-12T06:06:41.704Z,98020.63
2023-03-12T06:09:10.897Z,98023.48
2023-03-12T06:11:40.137Z,98023.80
2023-03-12T06:14:09.528Z,98023.69
2023-03-12T06:16:38.694Z,98023.84
2023-03-12T06:19:08.612Z,98033.79
2023-03-12T06:21:38.554Z,98035.63
2023-03-12T06:24:08.408Z,98039.45
2023-03-12T06:26:37.930Z,98037.82
2023-03-12T06:29:07.073Z,98041.02
2023-03-12T06:31:38.737Z,98046.01
2023-03-12T06:34:08.652Z,98051.88
2023-03-12T06:36:38.082Z,98053.52
2023-03-12T06:39:07.492Z,98053.14
2023-03-12T06:41:37.139Z,98058.25
2023-03-12T06:44:06.756Z,98060.33
2023-03-12T06:46:36.202Z,98063.77
2023-03-12T06:49:06.018Z,98067.85
2023-03-12T06:51:35.094Z,98073.53
2023-03-12T06:54:04.108Z,98075.09
2023-03-12T06:56:33.519Z,98083.09
2023-03-12T06:59:02.463Z,98080.52
2023-03-12T07:01:31.461Z,98086.79
2023-03-12T07:04:00.765Z,98090.02
2023-03-12T07:06:29.894Z,98099.48
2023-03-12T07:08:59.061Z,98100.69
2023-03-12T07:11:28.288Z,98102.33
2023-03-12T07:13:57.908Z,98103.63
2023-03-12T07:16:27.751Z,98104.72
2023-03-12T07:18:57.662Z,98111.11
2023-03-12T07:21:27.435Z,98118.88
2023-03-12T07:23:56.637Z,98122.19
2023-03-12T07:26:25.869Z,98120.84
2023-03-12T07:28:55.147Z,98129.78
2023-03-12T07:31:24.170Z,98132.82
2023-03-12T07:33:53.492Z,98135.08
2023-03-12T07:36:22.743Z,98142.98
2023-03-12T07:38:53.598Z,98145.98
2023-03-12T07:41:23.363Z,98153.84
2023-03-12T07:43:52.832Z,98156.77
2023-03-12T07:46:22.725Z,98154.23
2023-03-12T07:48:52.259Z,98161.73
2023-03-12T07:51:22.249Z,98166.05
2023-03-12T07:53:51.268Z,98166.13
2023-03-12T07:56:20.740Z,98170.39
2023-03-12T07:58:50.039Z,98172.64
2023-03-12T08:01:19.514Z,98180.14
2023-03-12T08:03:49.213Z,98184.12
2023-03-12T08:06:19.564Z,98192.09
2023-03-12T08:08:49.569Z,98197.67
2023-03-12T08:11:20.310Z,98204.42
2023-03-12T08:13:49.953Z,98208.34
2023-03-12T08:16:19.415Z,98210.92
2023-03-12T08:18:48.628Z,98216.16
2023-03-12T08:21:18.225Z,98218.58
2023-03-12T08:23:47.483Z,98219.08
2023-03-12T08:26:16.842Z,98226.08
2023-03-12T08:28:46.112Z,98229.05
2023-03-12T08:31:15.699Z,98233.09
2023-03-12T08:33:47.402Z,98238.35
2023-03-12T08:36:16.878Z,98245.46
2023-03-12T08:38:45.943Z,98245.07
2023-03-12T08:41:15.766Z,98241.20
2023-03-12T08:43:44.999Z,98238.77
2023-03-12T08:46:14.301Z,98238.73
2023-03-12T08:48:43.644Z,98241.17
2023-03-12T08:51:14.856Z,98247.72
2023-03-12T08:53:45.749Z,98251.80
2023-03-12T08:56:15.338Z,98247.14
2023-03-12T08:58:45.824Z,98242.91
2023-03-12T09:01:15.622Z,98243.56
2023-03-12T09:03:44.959Z,98251.23
2023-03-12T09:06:17.567Z,98257.27
2023-03-12T09:08:48.785Z,98248.40
2023-03-12T09:11:19.528Z,98244.42
2023-03-12T09:16:38.318Z,98249.46
2023-03-12T09:19:07.522Z,98249.31
2023-03-12T09:21:37.272Z,98252.36
2023-03-12T09:24:08.163Z,98261.70
2023-03-12T09:26:37.229Z,98262.25
2023-03-12T09:29:07.180Z,98265.92
2023-03-12T09:31:36.972Z,98265.34
2023-03-12T09:34:07.392Z,98273.95
2023-03-12T09:36:36.731Z,98272.15
2023-03-12T09:39:06.708Z,98278.00
2023-03-12T09:41:40.510Z,98279.96
2023-03-12T09:44:25.023Z,98277.94
2023-03-12T09:47:02.965Z,98276.73
2023-03-12T09:49:47.428Z,98277.85
2023-03-12T09:52:26.486Z,98278.09
2023-03-12T09:55:07.153Z,98274.77
2023-03-12T09:57:37.131Z,98265.94
2023-03-12T10:00:12.851Z,98272.32
2023-03-12T10:03:17.103Z,98273.02
2023-03-12T10:05:51.909Z,98268.34
2023-03-12T10:08:36.866Z,98274.16
2023-03-12T10:11:42.708Z,98275.43
2023-03-12T10:14:46.155Z,98276.23
2023-03-12T10:17:44.037Z,98281.23
2023-03-12T10:20:35.461Z,98280.27
2023-03-12T10:23:24.195Z,98278.56
2023-03-12T10:26:04.290Z,98284.61
2023-03-12T10:28:51.103Z,98288.89
2023-03-12T10:31:32.754Z,98292.80
2023-03-12T10:34:04.086Z,98291.86
2023-03-12T10:36:40.956Z,98287.00
2023-03-12T10:39:19.698Z,98281.42
2023-03-12T10:41:49.722Z,98285.50
2023-03-12T10:44:22.815Z,98286.70
2023-03-12T10:47:01.027Z,98282.75
2023-03-12T10:49:34.773Z,98275.85
2023-03-12T10:52:13.490Z,98274.91
2023-03-12T10:54:45.788Z,98274.63
2023-03-12T10:57:16.892Z,98281.56
2023-03-12T10:59:49.239Z,98287.14
2023-03-12T11:02:40.839Z,98284.67
2023-03-12T11:05:27.070Z,98283.28
2023-03-12T11:07:57.665Z,98285.64
2023-03-12T11:10:34.781Z,98291.91
2023-03-12T11:13:37.762Z,98283.16
2023-03-12T11:16:21.338Z,98279.17
2023-03-12T11:19:04.662Z,98281.45
2023-03-12T11:21:38.785Z,98274.85
2023-03-12T11:24:13.612Z,98279.63
2023-03-12T11:26:54.661Z,98278.56
2023-03-12T11:29:41.467Z,98276.61
2023-03-12T11:32:20.324Z,98279.52
2023-03-12T11:34:51.542Z,98284.02
2023-03-12T11:38:13.223Z,98279.86
2023-03-12T11:40:45.284Z,98275.98
2023-03-12T11:43:42.706Z,98276.86
2023-03-12T11:46:26.714Z,98278.09
2023-03-12T11:49:08.717Z,98277.25
2023-03-12T11:51:54.395Z,98278.60
2023-03-12T11:54:42.094Z,98278.16
2023-03-12T11:57:27.441Z,98273.11
2023-03-12T12:00:29.049Z,98271.67
2023-03-12T12:03:17.745Z,98275.45
2023-03-12T12:06:01.066Z,98278.81
2023-03-12T12:08:44.411Z,98276.10
2023-03-12T12:11:43.177Z,98279.98
2023-03-12T12:14:40.778Z,98282.45
2023-03-12T12:17:28.689Z,98279.17
2023-03-12T12:20:19.950Z,98280.23
2023-03-12T12:22:58.438Z,98287.79
2023-03-12T12:25:42.785Z,98291.16
2023-03-12T12:28:37.821Z,98295.96
2023-03-12T12:31:22.249Z,98298.70
2023-03-12T12:33:54.524Z,98292.83
2023-03-12T12:36:28.176Z,98288.66
2023-03-12T12:39:06.715Z,98287.45
2023-03-12T12:41:48.544Z,98287.27
2023-03-12T12:44:24.696Z,98285.00
2023-03-12T12:47:02.089Z,98285.50
2023-03-12T12:49:53.137Z,98284.29
2023-03-12T12:52:23.494Z,98287.99
2023-03-12T12:55:08.331Z,98286.14
2023-03-12T12:57:46.517Z,98285.10
2023-03-12T13:00:43.872Z,98282.77
2023-03-12T13:03:25.615Z,98282.06
2023-03-12T13:06:03.301Z,98280.75
2023-03-12T13:08:36.801Z,98278.67
2023-03-12T13:11:24.214Z,98277.61
2023-03-12T13:14:16.585Z,98287.55
2023-03-12T13:16:47.848Z,98295.73
2023-03-12T13:19:17.542Z,98300.70
2023-03-12T13:21:59.730Z,98303.13
2023-03-12T13:24:52.658Z,98304.42
2023-03-12T13:27:32.622Z,98307.11
2023-03-12T13:30:48.926Z,98303.73
2023-03-12T13:33:36.909Z,98299.79
2023-03-12T13:36:12.294Z,98309.27
2023-03-12T13:39:03.521Z,98313.02
2023-03-12T13:41:50.790Z,98314.59
2023-03-12T13:44:32.399Z,98316.73
2023-03-12T13:47:27.929Z,98321.61
2023-03-12T13:50:05.061Z,98319.54
2023-03-12T13:52:41.699Z,98318.41
2023-03-12T13:55:29.302Z,98326.21
2023-03-12T13:58:08.264Z,98328.78
2023-03-12T14:01:01.256Z,98329.05
2023-03-12T14:03:43.482Z,98328.92
2023-03-12T14:06:20.776Z,98331.01
2023-03-12T14:09:08.890Z,98335.20
2023-03-12T14:12:09.402Z,98336.05
2023-03-12T14:15:00.222Z,98343.38
2023-03-12T14:17:32.466Z,98343.73
2023-03-12T14:20:08.089Z,98350.95
2023-03-12T14:22:40.626Z,98350.84
2023-03-12T14:25:25.283Z,98353.08
2023-03-12T14:27:54.660Z,98358.52
2023-03-12T14:30:29.677Z,98362.95
2023-03-12T14:33:02.556Z,98364.17
2023-03-12T14:35:45.562Z,98366.12
2023-03-12T14:38:22.585Z,98367.98
2023-03-12T14:41:01.315Z,98367.52
2023-03-12T14:43:35.812Z,98361.66
2023-03-12T14:46:13.861Z,98359.14
2023-03-12T14:48:42.964Z,98358.30
2023-03-12T14:51:25.602Z,98352.55
2023-03-12T14:53:56.234Z,98352.83
2023-03-12T14:56:32.847Z,98355.48
2023-03-12T14:59:28.459Z,98358.71
2023-03-12T15:02:11.917Z,98359.41
2023-03-12T15:04:42.866Z,98360.50
2023-03-12T15:07:16.320Z,98363.31
2023-03-12T15:09:53.423Z,98364.59
2023-03-12T15:12:30.756Z,98373.52
2023-03-12T15:15:09.166Z,98381.11
2023-03-12T15:17:38.736Z,98390.21
2023-03-12T15:20:16.859Z,98393.38
2023-03-12T15:22:46.474Z,98392.20
2023-03-12T15:25:36.533Z,98396.56
2023-03-12T15:28:27.313Z,98394.56
2023-03-12T15:31:16.030Z,98389.38
2023-03-12T15:33:46.022Z,98387.46
2023-03-12T15:36:15.179Z,98386.15
2023-03-12T15:38:54.134Z,98390.58
2023-03-12T15:41:28.702Z,98391.67
2023-03-12T15:44:00.262Z,98390.95
2023-03-12T15:46:29.620Z,98395.52
2023-03-12T15:49:01.409Z,98395.42
2023-03-12T15:51:36.931Z,98393.74
2023-03-12T15:54:14.495Z,98389.77
2023-03-12T15:56:43.942Z,98393.42
2023-03-12T15:59:29.164Z,98399.09
2023-03-12T16:01:59.090Z,98399.66
2023-03-12T16:04:28.394Z,98400.29
2023-03-12T16:06:57.570Z,98403.86
2023-03-12T16:09:29.085Z,98400.21
2023-03-12T16:11:58.404Z,98400.68
2023-03-12T16:14:35.288Z,98406.81
2023-03-12T16:17:04.720Z,98411.23
2023-03-12T16:19:35.082Z,98416.28
2023-03-12T16:22:04.732Z,98416.77
2023-03-12T16:24:33.908Z,98425.73
2023-03-12T16:27:07.896Z,98431.35
2023-03-12T16:29:39.822Z,98433.97
2023-03-12T16:32:17.374Z,98436.80
2023-03-12T16:34:46.802Z,98437.02
2023-03-12T16:37:16.279Z,98438.65
2023-03-12T16:39:46.872Z,98437.99
2023-03-12T16:42:19.127Z,98439.49
2023-03-12T16:44:48.636Z,98443.57
2023-03-12T16:47:18.817Z,98445.33
2023-03-12T16:49:48.966Z,98453.90
2023-03-12T16:52:28.922Z,98456.29
2023-03-12T16:54:58.534Z,98465.80
2023-03-12T16:57:33.366Z,98472.09
2023-03-12T17:00:08.312Z,98477.44
2023-03-12T17:02:37.803Z,98489.55
2023-03-12T17:05:08.775Z,98489.90
2023-03-12T17:07:38.401Z,98495.84
2023-03-12T17:10:08.198Z,98494.77
2023-03-12T17:12:41.022Z,98494.31
2023-03-12T17:15:34.444Z,98493.96
2023-03-12T17:18:05.313Z,98499.98
2023-03-12T17:20:37.985Z,98503.86
2023-03-12T17:23:09.818Z,98514.80
2023-03-12T17:25:42.453Z,98514.29
2023-03-12T17:28:13.231Z,98514.92
2023-03-12T17:30:42.906Z,98520.33
2023-03-12T17:33:15.325Z,98522.35
2023-03-12T17:35:46.706Z,98527.49
2023-03-12T17:38:17.809Z,98532.83
2023-03-12T17:40:47.564Z,98542.06
2023-03-12T17:43:17.908Z,98547.40
2023-03-12T17:45:47.697Z,98551.98
2023-03-12T17:48:18.114Z,98565.17
2023-03-12T17:50:47.724Z,98567.03
2023-03-12T17:53:17.848Z,98571.81
2023-03-12T17:55:48.881Z,98576.44
2023-03-12T17:58:19.181Z,98581.77
2023-03-12T18:00:50.184Z,98586.84
2023-03-12T18:03:19.489Z,98588.30
2023-03-12T18:05:51.822Z,98594.79
2023-03-12T18:08:21.372Z,98597.19
2023-03-12T18:10:51.481Z,98600.34
2023-03-12T18:13:20.847Z,98599.53
2023-03-12T18:15:54.912Z,98605.02
2023-03-12T18:18:26.051Z,98606.03
2023-03-12T18:20:55.464Z,98606.13
2023-03-12T18:23:26.010Z,98614.69
2023-03-12T18:25:56.555Z,98618.35
2023-03-12T18:28:26.273Z,98625.02
2023-03-12T18:30:55.832Z,98634.58
2023-03-12T18:33:25.714Z,98640.73
2023-03-12T18:35:58.912Z,98645.77
2023-03-12T18:38:29.711Z,98648.11
2023-03-12T18:41:11.460Z,98656.64
2023-03-12T18:43:42.443Z,98652.27
2023-03-12T18:46:13.712Z,98657.30
2023-03-12T18:48:44.384Z,98665.54
2023-03-12T18:51:15.725Z,98668.25
2023-03-12T18:53:49.247Z,98671.39
2023-03-12T18:56:19.024Z,98677.59
2023-03-12T18:58:48.246Z,98681.20
2023-03-12T19:01:17.662Z,98686.76
2023-03-12T19:03:47.198Z,98686.55
2023-03-12T19:06:17.895Z,98686.15
2023-03-12T19:08:47.731Z,98687.51
2023-03-12T19:11:18.048Z,98694.85
2023-03-12T19:13:53.074Z,98699.02
2023-03-12T19:16:23.104Z,98700.38
2023-03-12T19:18:53.570Z,98702.16
2023-03-12T19:21:23.948Z,98704.61
2023-03-12T19:23:55.023Z,98705.45
2023-03-12T19:26:25.567Z,98707.45
2023-03-12T19:28:55.294Z,98712.35
2023-03-12T19:31:26.951Z,98717.50
2023-03-12T19:33:56.925Z,98727.66
2023-03-12T19:36:27.171Z,98737.12
2023-03-12T19:38:57.682Z,98743.13
2023-03-12T19:41:27.144Z,98749.70
2023-03-12T19:43:57.380Z,98757.23
2023-03-12T19:46:27.831Z,98759.75
2023-03-12T19:48:57.999Z,98767.29
2023-03-12T19:51:28.620Z,98764.40
2023-03-12T19:53:58.753Z,98769.98
2023-03-12T19:56:29.838Z,98776.02
2023-03-12T19:59:00.909Z,98784.13
2023-03-12T20:01:31.298Z,98787.73
2023-03-12T20:04:01.318Z,98792.20
2023-03-12T20:06:31.891Z,98795.41
2023-03-12T20:09:03.337Z,98802.08
2023-03-12T20:11:37.013Z,98804.38
2023-03-12T20:14:07.134Z,98802.93
2023-03-12T20:16:38.127Z,98805.48
2023-03-12T20:19:09.525Z,98809.23
2023-03-12T20:21:41.193Z,98813.13
2023-03-12T20:24:15.469Z,98816.92
2023-03-12T20:26:46.305Z,98822.05
2023-03-12T20:29:17.160Z,98821.90
2023-03-12T20:31:49.506Z,98825.79
2023-03-12T20:34:23.338Z,98828.55
2023-03-12T20:36:55.548Z,98833.48
2023-03-12T20:39:26.473Z,98838.16
2023-03-12T20:41:57.708Z,98842.44
2023-03-12T20:44:28.786Z,98839.35
2023-03-12T20:46:59.786Z,98840.15
2023-03-12T20:49:30.919Z,98840.45
2023-03-12T20:52:01.443Z,98843.24
2023-03-12T20:54:33.805Z,98842.55
2023-03-12T20:57:04.643Z,98846.25
2023-03-12T20:59:35.227Z,98849.30
2023-03-12T21:02:05.807Z,98846.73
2023-03-12T21:04:35.705Z,98849.14
2023-03-12T21:07:06.652Z,98847.73
2023-03-12T21:09:37.655Z,98848.39
2023-03-12T21:12:08.093Z,98845.95
2023-03-12T21:14:40.927Z,98848.23
2023-03-12T21:17:14.252Z,98851.71
2023-03-12T21:19:44.939Z,98858.99
2023-03-12T21:22:15.398Z,98862.93
2023-03-12T21:24:45.559Z,98857.16
2023-03-12T21:27:15.296Z,98856.47
2023-03-12T21:29:45.409Z,98856.48
2023-03-12T21:32:15.414Z,98856.84
2023-03-12T21:34:45.187Z,98859.59
2023-03-12T21:37:17.297Z,98861.60
2023-03-12T21:39:46.611Z,98864.58
2023-03-12T21:42:16.359Z,98867.12
2023-03-12T21:44:45.723Z,98871.48
2023-03-12T21:47:15.200Z,98872.01
2023-03-12T21:49:44.085Z,98876.49
2023-03-12T21:52:13.854Z,98881.33
2023-03-12T21:54:42.855Z,98885.14
2023-03-12T21:57:12.214Z,98887.73
2023-03-12T21:59:42.131Z,98882.27
2023-03-12T22:02:15.878Z,98879.88
2023-03-12T22:04:45.948Z,98875.04
2023-03-12T22:07:15.881Z,98869.23
2023-03-12T22:09:45.651Z,98869.35
2023-03-12T22:12:14.600Z,98869.69
2023-03-12T22:14:44.442Z,98872.98
2023-03-12T22:17:14.199Z,98874.60
2023-03-12T22:19:43.812Z,98878.21
2023-03-12T22:22:12.894Z,98879.81
2023-03-12T22:24:42.106Z,98883.52
2023-03-12T22:27:12.649Z,98887.48
2023-03-12T22:29:44.369Z,98888.07
2023-03-12T22:32:13.621Z,98887.77
2023-03-12T22:34:43.251Z,98887.52
2023-03-12T22:37:12.961Z,98887.83
2023-03-12T22:39:43.867Z,98889.19
2023-03-12T22:42:13.108Z,98892.32
2023-03-12T22:44:42.416Z,98900.09
2023-03-12T22:47:12.155Z,98904.95
2023-03-12T22:49:41.328Z,98906.73
2023-03-12T22:52:10.174Z,98909.08
2023-03-12T22:54:38.842Z,98913.09
2023-03-12T22:57:07.835Z,98917.88
2023-03-12T22:59:38.788Z,98914.81
2023-03-12T23:02:07.475Z,98909.48
2023-03-12T23:04:36.556Z,98915.09
2023-03-12T23:07:14.388Z,98917.84
2023-03-12T23:09:47.541Z,98917.86
2023-03-12T23:12:16.404Z,98916.84
2023-03-12T23:14:45.386Z,98913.85
2023-03-12T23:17:14.569Z,98918.27
2023-03-12T23:19:44.409Z,98917.80
2023-03-12T23:22:13.351Z,98912.31
2023-03-12T23:24:42.634Z,98909.98
2023-03-12T23:27:11.702Z,98913.33
2023-03-12T23:29:40.604Z,98915.37
2023-03-12T23:32:09.685Z,98917.75
2023-03-12T23:34:38.877Z,98916.08
2023-03-12T23:37:08.699Z,98919.22
2023-03-12T23:39:53.426Z,98917.70
2023-03-12T23:42:23.331Z,98914.16
2023-03-12T23:44:52.078Z,98915.16
2023-03-12T23:47:21.222Z,98917.45
2023-03-12T23:49:50.631Z,98915.61
2023-03-12T23:52:19.638Z,98908.24
2023-03-12T23:54:48.907Z,98898.67
2023-03-12T23:57:17.797Z,98892.85
2023-03-12T23:59:46.826Z,98885.17
